Luodian, China
Current Conditions -  °F | °C
As of 6:00 PM on Saturday 20 Dec 2014 (Local Time) from ZUGY Reporting Station
Clear Clear  
Wind Chill: 52°   Ceiling: Unl
Heat Index: 52°   Visibility: 6mi
Dew Point: 41°   Wind: 9mph
Humidity: 67%   Direction: 190°S
Pressure: 29.97"   Gusts: NA
Location:  25.43°N, 106.77°E
Report Text: ZUGY 201000Z 19004MPS CAVOK 11/05 Q1015 NOSIG
Loading
Personal Weather Stations






























Interactive Weather Map New forecast layout! Learn more

10-Day Weather Forecast

Advertisements
Track Severe Weather on mobile